createdAt,value
2018-10-06T00:01:37.173Z,96569.7
2018-10-06T00:06:33.908Z,96574.5
2018-10-06T00:11:30.566Z,96576.5
2018-10-06T00:16:27.154Z,96577.2
2018-10-06T00:21:24.054Z,96569.7
2018-10-06T00:26:20.871Z,96562.6
2018-10-06T00:31:17.593Z,96567.8
2018-10-06T00:36:14.136Z,96563.7
2018-10-06T00:41:10.823Z,96558
2018-10-06T00:46:07.318Z,96564.6
2018-10-06T00:51:04.031Z,96521.7
2018-10-06T00:56:00.902Z,96560.4
2018-10-06T01:00:57.984Z,96554.6
2018-10-06T01:05:54.487Z,96559.9
2018-10-06T01:10:51.389Z,96560.7
2018-10-06T01:15:48.238Z,96441.8
2018-10-06T01:20:44.519Z,96564.8
2018-10-06T01:25:41.384Z,96569.7
2018-10-06T01:30:37.912Z,96457
2018-10-06T01:35:34.527Z,96564
2018-10-06T01:40:30.967Z,96561.8
2018-10-06T01:45:27.603Z,96557.8
2018-10-06T01:50:24.713Z,96449.9
2018-10-06T01:55:21.111Z,96515.8
2018-10-06T02:00:18.257Z,96553
2018-10-06T02:05:14.964Z,96562.5
2018-10-06T02:10:11.539Z,96564.2
2018-10-06T02:15:08.047Z,96567.3
2018-10-06T02:20:04.670Z,96564
2018-10-06T02:25:01.435Z,96559.4
2018-10-06T02:29:58.614Z,96558.2
2018-10-06T02:34:54.507Z,96557
2018-10-06T02:39:51.319Z,96554.9
2018-10-06T02:44:47.908Z,96552
2018-10-06T02:49:44.423Z,96551.3
2018-10-06T02:54:41.140Z,96560.5
2018-10-06T02:59:38.189Z,96551.9
2018-10-06T03:04:34.846Z,96549.4
2018-10-06T03:09:31.324Z,96556.2
2018-10-06T03:14:27.889Z,96553.3
2018-10-06T03:19:24.556Z,96548.9
2018-10-06T03:24:21.315Z,96417.3
2018-10-06T03:29:17.980Z,96546.9
2018-10-06T03:34:14.479Z,96550.9
2018-10-06T03:39:11.698Z,96472.6
2018-10-06T03:44:07.884Z,96551.6
2018-10-06T03:49:04.385Z,96546.1
2018-10-06T03:54:01.338Z,96538.6
2018-10-06T03:58:57.901Z,96425.5
2018-10-06T04:03:54.613Z,96543.5
2018-10-06T04:08:51.228Z,96541.4
2018-10-06T04:13:48.606Z,96423.5
2018-10-06T04:18:44.356Z,96533.2
2018-10-06T04:23:41.246Z,96536.5
2018-10-06T04:28:37.710Z,96532.1
2018-10-06T04:33:34.393Z,96530.1
2018-10-06T04:38:31.030Z,96530.6
2018-10-06T04:43:28.036Z,96410.7
2018-10-06T04:48:25.027Z,96418.7
2018-10-06T04:53:21.501Z,96412.2
2018-10-06T04:58:18.614Z,96418.5
2018-10-06T05:03:15.146Z,96527.2
2018-10-06T05:08:11.940Z,96538.3
2018-10-06T05:13:08.594Z,96540.8
2018-10-06T05:18:05.629Z,96534.9
2018-10-06T05:23:02.355Z,96429.5
2018-10-06T05:27:59.538Z,96549.6
2018-10-06T05:32:56.015Z,96419.8
2018-10-06T05:37:53.058Z,96532.6
2018-10-06T05:42:49.249Z,96539.8
2018-10-06T05:47:46.060Z,96421.2
2018-10-06T05:52:42.614Z,96422
2018-10-06T05:57:39.696Z,96466.6
2018-10-06T06:02:36.339Z,96532.5
2018-10-06T06:07:32.943Z,96558.8
2018-10-06T06:12:29.484Z,96553.1
2018-10-06T06:17:26.153Z,96100.5
2018-10-06T06:22:23.283Z,96566.4
2018-10-06T06:27:20.120Z,96568.5
2018-10-06T06:32:16.900Z,96566.8
2018-10-06T06:37:13.231Z,96424.9
2018-10-06T06:42:09.749Z,96571.5
2018-10-06T06:47:06.211Z,96570.1
2018-10-06T06:52:03.175Z,96572.9
2018-10-06T06:56:59.837Z,96568.3
2018-10-06T07:01:56.322Z,96568.1
2018-10-06T07:06:53.134Z,96562.4
2018-10-06T07:11:49.645Z,96564.1
2018-10-06T07:16:50.066Z,96568.9
2018-10-06T07:21:45.041Z,96573.9
2018-10-06T07:26:41.407Z,96449.5
2018-10-06T07:31:38.293Z,96562.6
2018-10-06T07:36:35.041Z,96557.3
2018-10-06T07:41:31.567Z,96551.9
2018-10-06T07:46:28.239Z,96554.1
2018-10-06T07:51:25.015Z,96552.3
2018-10-06T07:56:21.966Z,96472.8
2018-10-06T08:01:18.989Z,96534.4
2018-10-06T08:06:15.799Z,96533.8
2018-10-06T08:11:12.605Z,96531.7
2018-10-06T08:16:09.286Z,96492.3
2018-10-06T08:21:06.018Z,96519
2018-10-06T08:26:02.977Z,96514.4
2018-10-06T08:30:59.417Z,96390.5
2018-10-06T08:35:56.413Z,96504.9
2018-10-06T08:40:52.993Z,96498.6
2018-10-06T08:45:49.911Z,96384.8
2018-10-06T08:50:46.357Z,96480.5
2018-10-06T08:55:43.329Z,96465.4
2018-10-06T09:00:39.866Z,96466.7
2018-10-06T09:05:35.624Z,96341.1
2018-10-06T09:10:32.366Z,96453.2
2018-10-06T09:15:28.706Z,96443.2
2018-10-06T09:20:25.609Z,96444.1
2018-10-06T09:25:22.163Z,96431
2018-10-06T09:30:19.993Z,96321.4
2018-10-06T09:35:16.621Z,96427.3
2018-10-06T09:40:13.992Z,96413.7
2018-10-06T09:45:10.433Z,96410.7
2018-10-06T09:50:09.431Z,96410.4
2018-10-06T09:55:05.673Z,96388.7
2018-10-06T10:00:02.927Z,96377.9
2018-10-06T10:05:01.605Z,96377.4
2018-10-06T10:09:58.070Z,96282.9
2018-10-06T10:14:54.219Z,96257.4
2018-10-06T10:19:52.139Z,96348.7
2018-10-06T10:24:48.210Z,96417.5
2018-10-06T10:29:45.111Z,96343.5
2018-10-06T10:34:41.794Z,96208.9
2018-10-06T10:39:38.391Z,96419.3
2018-10-06T10:44:35.150Z,96397
2018-10-06T10:49:32.260Z,96369.3
2018-10-06T10:54:29.110Z,96371.5
2018-10-06T10:59:26.188Z,96263.6
2018-10-06T11:04:22.892Z,96149.9
2018-10-06T11:09:20.163Z,96328.1
2018-10-06T11:14:16.856Z,96132.1
2018-10-06T11:19:13.809Z,96123.5
2018-10-06T11:24:10.573Z,96216.7
2018-10-06T11:29:07.159Z,96203.1
2018-10-06T11:34:03.852Z,96095.9
2018-10-06T11:39:00.313Z,96080.4
2018-10-06T11:43:57.045Z,96081.1
2018-10-06T11:48:50.256Z,96075.6
2018-10-06T11:53:47.214Z,96163.6
2018-10-06T11:58:44.163Z,96152.4
2018-10-06T12:03:40.389Z,96047.1
2018-10-06T12:08:36.869Z,96143.1
2018-10-06T12:13:33.577Z,96137.2
2018-10-06T12:18:30.418Z,96021.3
2018-10-06T12:23:26.721Z,96126.3
2018-10-06T12:28:24.979Z,96016.4
2018-10-06T12:33:21.135Z,96006.3
2018-10-06T12:38:17.895Z,96000.6
2018-10-06T12:43:14.576Z,95989.9
2018-10-06T12:48:11.333Z,96093.8
2018-10-06T12:53:08.076Z,95983.8
2018-10-06T12:58:05.393Z,95973.7
2018-10-06T13:03:02.720Z,95973.3
2018-10-06T13:07:59.788Z,95966.3
2018-10-06T13:12:56.288Z,95960.3
2018-10-06T13:17:53.426Z,95948.8
2018-10-06T13:22:50.009Z,95952.2
2018-10-06T13:27:46.703Z,95945.3
2018-10-06T13:32:43.153Z,95930.8
2018-10-06T13:37:39.866Z,95892.3
2018-10-06T13:42:36.669Z,95915.5
2018-10-06T13:47:33.469Z,95910.6
2018-10-06T13:52:30.320Z,96011.4
2018-10-06T13:57:27.422Z,95916.9
2018-10-06T14:02:24.352Z,95908.2
2018-10-06T14:07:21.452Z,95908.2
2018-10-06T14:12:18.275Z,95902
2018-10-06T14:17:14.981Z,95900.1
2018-10-06T14:22:11.722Z,95899.3
2018-10-06T14:27:08.470Z,95899.4
2018-10-06T14:32:04.961Z,95995.7
2018-10-06T14:37:01.353Z,95888.3
2018-10-06T14:41:58.235Z,95883.4
2018-10-06T14:46:55.072Z,95876.8
2018-10-06T14:51:51.810Z,95877.6
2018-10-06T14:56:49.045Z,95882
2018-10-06T15:01:45.637Z,95878.2
2018-10-06T15:06:42.366Z,95872.6
2018-10-06T15:11:39.172Z,95886.5
2018-10-06T15:16:35.785Z,95876.6
2018-10-06T15:21:32.426Z,95877.3
2018-10-06T15:26:29.053Z,95868.3
2018-10-06T15:31:25.825Z,95865.1
2018-10-06T15:36:22.319Z,95877.5
2018-10-06T15:41:18.907Z,95863.4
2018-10-06T15:46:15.711Z,95857.5
2018-10-06T15:51:12.490Z,95863.9
2018-10-06T15:56:08.976Z,95861.6
2018-10-06T16:01:05.866Z,95864.1
2018-10-06T16:06:02.758Z,95967.9
2018-10-06T16:10:59.321Z,95869.8
2018-10-06T16:15:56.093Z,95880.4
2018-10-06T16:20:52.784Z,95865.9
2018-10-06T16:25:49.455Z,95879.1
2018-10-06T16:30:46.127Z,95872.8
2018-10-06T16:35:43.491Z,95880.9
2018-10-06T16:40:40.010Z,95874.5
2018-10-06T16:45:36.503Z,95977.7
2018-10-06T16:50:32.982Z,95970.5
2018-10-06T16:55:29.907Z,95876.8
2018-10-06T17:00:26.859Z,95974.6
2018-10-06T17:05:23.404Z,95868.3
2018-10-06T17:10:19.688Z,95875.5
2018-10-06T17:15:16.327Z,95868.3
2018-10-06T17:20:12.931Z,96045.6
2018-10-06T17:25:09.757Z,95885.8
2018-10-06T17:30:06.383Z,96092.5
2018-10-06T17:35:03.124Z,95995.1
2018-10-06T17:39:59.261Z,96130.2
2018-10-06T17:44:56.776Z,95998.8
2018-10-06T17:49:53.581Z,95720.3
2018-10-06T17:54:50.327Z,96006.5
2018-10-06T17:59:47.135Z,96009.5
2018-10-06T18:04:44.116Z,95977.9
2018-10-06T18:09:40.537Z,95915
2018-10-06T18:14:36.548Z,96004.1
2018-10-06T18:19:33.251Z,96010.9
2018-10-06T18:24:29.956Z,96008.8
2018-10-06T18:29:26.702Z,96006
2018-10-06T18:34:22.942Z,96001
2018-10-06T18:39:19.673Z,96008.4
2018-10-06T18:44:16.210Z,95263.5
2018-10-06T18:49:12.899Z,96019.3
2018-10-06T18:54:09.479Z,96025.7
2018-10-06T18:59:06.232Z,96020
2018-10-06T19:04:03.369Z,96021.7
2018-10-06T19:08:59.294Z,96006.6
2018-10-06T19:13:55.878Z,96016.2
2018-10-06T19:18:52.844Z,96011.3
2018-10-06T19:23:49.450Z,96009.3
2018-10-06T19:28:45.643Z,96019.1
2018-10-06T19:33:41.888Z,96020
2018-10-06T19:38:38.462Z,96014.5
2018-10-06T19:43:35.121Z,96006
2018-10-06T19:48:31.725Z,95939.4
2018-10-06T19:53:28.656Z,96049.7
2018-10-06T19:58:25.636Z,96010.5
2018-10-06T20:03:22.478Z,96013
2018-10-06T20:08:18.805Z,96015.7
2018-10-06T20:13:15.563Z,96010.2
2018-10-06T20:18:11.921Z,96007.6
2018-10-06T20:23:08.838Z,96004.6
2018-10-06T20:28:05.379Z,96013
2018-10-06T20:33:01.719Z,96009.6
2018-10-06T20:37:58.214Z,96002.9
2018-10-06T20:42:54.791Z,95893.2
2018-10-06T20:47:51.217Z,96002.8
2018-10-06T20:52:47.955Z,95992.5
2018-10-06T20:57:44.672Z,95884.4
2018-10-06T21:02:41.372Z,95993.4
2018-10-06T21:07:38.265Z,95988.2
2018-10-06T21:12:35.126Z,95849.4
2018-10-06T21:17:32.064Z,95987.6
2018-10-06T21:22:28.919Z,95982.7
2018-10-06T21:27:25.728Z,95981.8
2018-10-06T21:32:22.359Z,95978.8
2018-10-06T21:37:19.024Z,95981.2
2018-10-06T21:42:16.077Z,95977
2018-10-06T21:47:12.900Z,95979
2018-10-06T21:52:09.295Z,95936.2
2018-10-06T21:57:06.179Z,95973.8
2018-10-06T22:02:03.411Z,95963.1
2018-10-06T22:06:59.821Z,95960.9
2018-10-06T22:11:56.487Z,95967.3
2018-10-06T22:16:53.150Z,95961.8
2018-10-06T22:21:49.934Z,95801.4
2018-10-06T22:26:46.669Z,95881.6
2018-10-06T22:31:43.653Z,95958.9
2018-10-06T22:36:40.446Z,95959.7
2018-10-06T22:41:37.067Z,95967.3
2018-10-06T22:46:33.684Z,95967.8
2018-10-06T22:51:30.605Z,95969.8
2018-10-06T22:56:27.553Z,95969.4
2018-10-06T23:01:24.490Z,95934
2018-10-06T23:06:21.280Z,95974
2018-10-06T23:11:17.919Z,95972.2
2018-10-06T23:16:14.502Z,95967.4
2018-10-06T23:21:11.456Z,95969.4
2018-10-06T23:26:07.816Z,95973.9
2018-10-06T23:31:04.384Z,95967.2
2018-10-06T23:36:01.095Z,95975.3
2018-10-06T23:40:57.624Z,95980.2
2018-10-06T23:45:55.093Z,95975.7
2018-10-06T23:50:51.644Z,95962.7
2018-10-06T23:55:48.124Z,95961.8
